sensor_id;sensor_type;location;lat;lon;timestamp;P1;durP1;ratioP1;P2;durP2;ratioP2
57309;SDS011;43153;50.984;18.204;2023-04-24T00:01:06;11.90;;;4.20;;
57309;SDS011;43153;50.984;18.204;2023-04-24T00:03:32;9.50;;;4.40;;
57309;SDS011;43153;50.984;18.204;2023-04-24T00:06:02;12.50;;;4.90;;
57309;SDS011;43153;50.984;18.204;2023-04-24T00:08:33;9.80;;;4.70;;
57309;SDS011;43153;50.984;18.204;2023-04-24T00:11:00;11.80;;;4.10;;
57309;SDS011;43153;50.984;18.204;2023-04-24T00:13:26;9.60;;;4.90;;
57309;SDS011;43153;50.984;18.204;2023-04-24T00:15:55;11.60;;;4.60;;
57309;SDS011;43153;50.984;18.204;2023-04-24T00:18:21;8.10;;;3.70;;
57309;SDS011;43153;50.984;18.204;2023-04-24T00:20:47;9.30;;;4.10;;
57309;SDS011;43153;50.984;18.204;2023-04-24T00:23:13;11.50;;;4.90;;
57309;SDS011;43153;50.984;18.204;2023-04-24T00:25:39;11.00;;;4.60;;
57309;SDS011;43153;50.984;18.204;2023-04-24T00:30:37;10.30;;;4.10;;
57309;SDS011;43153;50.984;18.204;2023-04-24T00:33:03;10.50;;;4.60;;
57309;SDS011;43153;50.984;18.204;2023-04-24T00:35:29;9.50;;;3.40;;
57309;SDS011;43153;50.984;18.204;2023-04-24T00:37:55;8.70;;;3.80;;
57309;SDS011;43153;50.984;18.204;2023-04-24T00:40:21;11.60;;;4.10;;
57309;SDS011;43153;50.984;18.204;2023-04-24T00:42:47;9.00;;;3.60;;
57309;SDS011;43153;50.984;18.204;2023-04-24T00:45:14;11.40;;;3.60;;
57309;SDS011;43153;50.984;18.204;2023-04-24T00:47:42;10.00;;;4.00;;
57309;SDS011;43153;50.984;18.204;2023-04-24T00:50:12;9.30;;;3.70;;
57309;SDS011;43153;50.984;18.204;2023-04-24T00:52:40;7.30;;;3.80;;
57309;SDS011;43153;50.984;18.204;2023-04-24T00:55:06;8.40;;;3.30;;
57309;SDS011;43153;50.984;18.204;2023-04-24T00:57:33;10.50;;;4.20;;
57309;SDS011;43153;50.984;18.204;2023-04-24T01:00:03;8.20;;;3.50;;
57309;SDS011;43153;50.984;18.204;2023-04-24T01:02:31;11.60;;;4.30;;
57309;SDS011;43153;50.984;18.204;2023-04-24T01:05:00;9.30;;;4.20;;
57309;SDS011;43153;50.984;18.204;2023-04-24T01:07:26;8.80;;;3.90;;
57309;SDS011;43153;50.984;18.204;2023-04-24T01:09:55;10.50;;;3.80;;
57309;SDS011;43153;50.984;18.204;2023-04-24T01:12:21;10.80;;;3.70;;
57309;SDS011;43153;50.984;18.204;2023-04-24T01:14:47;9.70;;;3.90;;
57309;SDS011;43153;50.984;18.204;2023-04-24T01:17:13;10.90;;;3.80;;
57309;SDS011;43153;50.984;18.204;2023-04-24T01:19:40;11.10;;;4.50;;
57309;SDS011;43153;50.984;18.204;2023-04-24T01:22:10;10.20;;;4.40;;
57309;SDS011;43153;50.984;18.204;2023-04-24T01:24:40;15.30;;;4.50;;
57309;SDS011;43153;50.984;18.204;2023-04-24T01:27:07;11.40;;;4.30;;
57309;SDS011;43153;50.984;18.204;2023-04-24T01:29:34;9.60;;;3.90;;
57309;SDS011;43153;50.984;18.204;2023-04-24T01:32:03;9.80;;;4.40;;
57309;SDS011;43153;50.984;18.204;2023-04-24T01:34:31;9.60;;;4.30;;
57309;SDS011;43153;50.984;18.204;2023-04-24T01:36:57;8.70;;;3.90;;
57309;SDS011;43153;50.984;18.204;2023-04-24T01:39:23;11.90;;;4.60;;
57309;SDS011;43153;50.984;18.204;2023-04-24T01:41:55;10.10;;;4.00;;
57309;SDS011;43153;50.984;18.204;2023-04-24T01:44:22;11.10;;;4.70;;
57309;SDS011;43153;50.984;18.204;2023-04-24T01:46:49;8.50;;;4.10;;
57309;SDS011;43153;50.984;18.204;2023-04-24T01:49:16;9.70;;;4.10;;
57309;SDS011;43153;50.984;18.204;2023-04-24T01:51:41;10.10;;;4.40;;
57309;SDS011;43153;50.984;18.204;2023-04-24T01:54:08;10.80;;;4.80;;
57309;SDS011;43153;50.984;18.204;2023-04-24T01:56:35;10.00;;;4.50;;
57309;SDS011;43153;50.984;18.204;2023-04-24T01:59:01;11.40;;;4.20;;
57309;SDS011;43153;50.984;18.204;2023-04-24T02:01:29;9.40;;;3.70;;
57309;SDS011;43153;50.984;18.204;2023-04-24T02:04:00;13.30;;;4.20;;
57309;SDS011;43153;50.984;18.204;2023-04-24T02:06:26;9.40;;;4.40;;
57309;SDS011;43153;50.984;18.204;2023-04-24T02:08:53;11.30;;;4.80;;
57309;SDS011;43153;50.984;18.204;2023-04-24T02:11:23;10.10;;;4.60;;
57309;SDS011;43153;50.984;18.204;2023-04-24T02:13:51;11.40;;;5.00;;
57309;SDS011;43153;50.984;18.204;2023-04-24T02:16:18;9.40;;;4.40;;
57309;SDS011;43153;50.984;18.204;2023-04-24T02:18:44;10.50;;;4.90;;
57309;SDS011;43153;50.984;18.204;2023-04-24T02:21:11;10.90;;;4.90;;
57309;SDS011;43153;50.984;18.204;2023-04-24T03:02:04;14.40;;;6.50;;
57309;SDS011;43153;50.984;18.204;2023-04-24T03:04:33;12.40;;;6.40;;
57309;SDS011;43153;50.984;18.204;2023-04-24T03:07:00;13.10;;;6.50;;
57309;SDS011;43153;50.984;18.204;2023-04-24T03:09:27;12.80;;;6.10;;
57309;SDS011;43153;50.984;18.204;2023-04-24T03:11:57;16.70;;;7.30;;
57309;SDS011;43153;50.984;18.204;2023-04-24T03:14:27;12.30;;;6.00;;
57309;SDS011;43153;50.984;18.204;2023-04-24T03:16:52;12.00;;;5.90;;
57309;SDS011;43153;50.984;18.204;2023-04-24T03:19:18;12.90;;;5.90;;
57309;SDS011;43153;50.984;18.204;2023-04-24T03:21:44;12.90;;;6.70;;
57309;SDS011;43153;50.984;18.204;2023-04-24T03:24:10;15.10;;;6.00;;
57309;SDS011;43153;50.984;18.204;2023-04-24T03:26:36;14.50;;;6.40;;
57309;SDS011;43153;50.984;18.204;2023-04-24T03:29:03;15.40;;;6.70;;
57309;SDS011;43153;50.984;18.204;2023-04-24T03:31:28;13.00;;;6.10;;
57309;SDS011;43153;50.984;18.204;2023-04-24T03:33:57;13.10;;;6.20;;
57309;SDS011;43153;50.984;18.204;2023-04-24T03:36:22;10.70;;;6.20;;
57309;SDS011;43153;50.984;18.204;2023-04-24T03:38:51;13.50;;;6.40;;
57309;SDS011;43153;50.984;18.204;2023-04-24T03:41:17;14.90;;;6.90;;
57309;SDS011;43153;50.984;18.204;2023-04-24T03:43:43;14.20;;;7.10;;
57309;SDS011;43153;50.984;18.204;2023-04-24T03:46:12;14.80;;;7.40;;
57309;SDS011;43153;50.984;18.204;2023-04-24T03:48:38;15.40;;;6.40;;
57309;SDS011;43153;50.984;18.204;2023-04-24T03:51:04;18.40;;;7.60;;
57309;SDS011;43153;50.984;18.204;2023-04-24T03:53:31;14.00;;;7.50;;
57309;SDS011;43153;50.984;18.204;2023-04-24T03:55:57;16.40;;;7.70;;
57309;SDS011;43153;50.984;18.204;2023-04-24T03:58:23;18.40;;;8.30;;
57309;SDS011;43153;50.984;18.204;2023-04-24T04:00:49;18.70;;;8.80;;
57309;SDS011;43153;50.984;18.204;2023-04-24T04:03:16;18.10;;;9.10;;
57309;SDS011;43153;50.984;18.204;2023-04-24T04:05:42;19.60;;;10.10;;
57309;SDS011;43153;50.984;18.204;2023-04-24T04:08:07;14.50;;;8.30;;
57309;SDS011;43153;50.984;18.204;2023-04-24T04:10:33;19.60;;;8.90;;
57309;SDS011;43153;50.984;18.204;2023-04-24T04:13:01;15.10;;;8.10;;
57309;SDS011;43153;50.984;18.204;2023-04-24T04:15:27;15.00;;;7.10;;
57309;SDS011;43153;50.984;18.204;2023-04-24T04:17:53;20.00;;;8.30;;
57309;SDS011;43153;50.984;18.204;2023-04-24T04:20:21;15.40;;;7.10;;
57309;SDS011;43153;50.984;18.204;2023-04-24T04:22:47;14.00;;;7.90;;
57309;SDS011;43153;50.984;18.204;2023-04-24T04:25:13;17.10;;;7.90;;
57309;SDS011;43153;50.984;18.204;2023-04-24T04:27:45;17.50;;;7.10;;
57309;SDS011;43153;50.984;18.204;2023-04-24T04:30:16;13.30;;;7.00;;
57309;SDS011;43153;50.984;18.204;2023-04-24T04:32:46;12.40;;;6.80;;
57309;SDS011;43153;50.984;18.204;2023-04-24T04:35:16;13.50;;;6.90;;
57309;SDS011;43153;50.984;18.204;2023-04-24T04:37:42;13.00;;;7.00;;
57309;SDS011;43153;50.984;18.204;2023-04-24T04:40:10;17.40;;;7.60;;
57309;SDS011;43153;50.984;18.204;2023-04-24T04:42:38;16.00;;;7.80;;
57309;SDS011;43153;50.984;18.204;2023-04-24T04:45:06;17.00;;;7.90;;
57309;SDS011;43153;50.984;18.204;2023-04-24T04:50:03;20.20;;;7.10;;
57309;SDS011;43153;50.984;18.204;2023-04-24T04:52:31;17.50;;;8.10;;
57309;SDS011;43153;50.984;18.204;2023-04-24T04:54:58;15.10;;;7.10;;
57309;SDS011;43153;50.984;18.204;2023-04-24T04:57:24;17.70;;;7.90;;
57309;SDS011;43153;50.984;18.204;2023-04-24T04:59:50;16.90;;;7.80;;
57309;SDS011;43153;50.984;18.204;2023-04-24T05:02:19;17.00;;;8.10;;
57309;SDS011;43153;50.984;18.204;2023-04-24T05:04:46;15.20;;;7.00;;
57309;SDS011;43153;50.984;18.204;2023-04-24T05:07:14;15.50;;;6.80;;
57309;SDS011;43153;50.984;18.204;2023-04-24T05:09:39;14.20;;;6.80;;
57309;SDS011;43153;50.984;18.204;2023-04-24T05:12:05;16.60;;;7.00;;
57309;SDS011;43153;50.984;18.204;2023-04-24T05:14:33;13.80;;;6.50;;
57309;SDS011;43153;50.984;18.204;2023-04-24T05:17:00;15.80;;;6.70;;
57309;SDS011;43153;50.984;18.204;2023-04-24T05:19:27;15.30;;;6.60;;
57309;SDS011;43153;50.984;18.204;2023-04-24T05:21:55;13.10;;;6.80;;
57309;SDS011;43153;50.984;18.204;2023-04-24T05:24:20;15.90;;;6.50;;
57309;SDS011;43153;50.984;18.204;2023-04-24T05:26:48;15.70;;;6.90;;
57309;SDS011;43153;50.984;18.204;2023-04-24T05:29:15;15.40;;;6.90;;
57309;SDS011;43153;50.984;18.204;2023-04-24T05:31:44;15.20;;;6.80;;
57309;SDS011;43153;50.984;18.204;2023-04-24T05:34:12;16.60;;;7.40;;
57309;SDS011;43153;50.984;18.204;2023-04-24T05:36:39;18.20;;;8.00;;
57309;SDS011;43153;50.984;18.204;2023-04-24T05:39:16;17.40;;;7.00;;
57309;SDS011;43153;50.984;18.204;2023-04-24T05:41:47;15.80;;;6.70;;
57309;SDS011;43153;50.984;18.204;2023-04-24T05:44:22;17.10;;;7.40;;
57309;SDS011;43153;50.984;18.204;2023-04-24T05:46:52;18.90;;;6.50;;
57309;SDS011;43153;50.984;18.204;2023-04-24T05:49:21;14.10;;;6.50;;
57309;SDS011;43153;50.984;18.204;2023-04-24T05:51:46;16.50;;;6.40;;
57309;SDS011;43153;50.984;18.204;2023-04-24T05:54:12;21.00;;;7.60;;
57309;SDS011;43153;50.984;18.204;2023-04-24T05:56:38;20.10;;;7.10;;
57309;SDS011;43153;50.984;18.204;2023-04-24T05:59:04;14.50;;;7.20;;
57309;SDS011;43153;50.984;18.204;2023-04-24T06:01:30;18.30;;;7.60;;
57309;SDS011;43153;50.984;18.204;2023-04-24T06:03:57;14.40;;;6.80;;
57309;SDS011;43153;50.984;18.204;2023-04-24T06:06:27;12.60;;;5.70;;
57309;SDS011;43153;50.984;18.204;2023-04-24T06:08:54;14.50;;;6.20;;
57309;SDS011;43153;50.984;18.204;2023-04-24T06:11:19;20.90;;;7.00;;
57309;SDS011;43153;50.984;18.204;2023-04-24T06:13:46;14.20;;;6.60;;
57309;SDS011;43153;50.984;18.204;2023-04-24T06:16:14;16.10;;;5.90;;
57309;SDS011;43153;50.984;18.204;2023-04-24T06:18:39;12.90;;;5.70;;
57309;SDS011;43153;50.984;18.204;2023-04-24T06:21:06;13.20;;;6.50;;
57309;SDS011;43153;50.984;18.204;2023-04-24T06:23:36;16.70;;;7.00;;
57309;SDS011;43153;50.984;18.204;2023-04-24T06:26:02;11.10;;;5.80;;
57309;SDS011;43153;50.984;18.204;2023-04-24T06:28:30;11.10;;;6.10;;
57309;SDS011;43153;50.984;18.204;2023-04-24T06:30:57;14.90;;;5.90;;
57309;SDS011;43153;50.984;18.204;2023-04-24T06:33:24;17.10;;;5.90;;
57309;SDS011;43153;50.984;18.204;2023-04-24T06:35:50;14.80;;;6.40;;
57309;SDS011;43153;50.984;18.204;2023-04-24T06:38:29;15.40;;;5.90;;
57309;SDS011;43153;50.984;18.204;2023-04-24T06:40:57;14.80;;;6.40;;
57309;SDS011;43153;50.984;18.204;2023-04-24T06:43:23;12.00;;;5.20;;
57309;SDS011;43153;50.984;18.204;2023-04-24T06:45:52;12.90;;;6.60;;
57309;SDS011;43153;50.984;18.204;2023-04-24T06:48:22;15.60;;;5.80;;
57309;SDS011;43153;50.984;18.204;2023-04-24T06:50:50;14.10;;;6.10;;
57309;SDS011;43153;50.984;18.204;2023-04-24T06:53:19;12.90;;;6.40;;
57309;SDS011;43153;50.984;18.204;2023-04-24T06:56:02;12.90;;;5.80;;
57309;SDS011;43153;50.984;18.204;2023-04-24T06:58:30;15.80;;;5.70;;
57309;SDS011;43153;50.984;18.204;2023-04-24T07:00:56;14.40;;;5.40;;
57309;SDS011;43153;50.984;18.204;2023-04-24T07:03:24;12.10;;;6.30;;
57309;SDS011;43153;50.984;18.204;2023-04-24T07:05:54;12.20;;;5.80;;
57309;SDS011;43153;50.984;18.204;2023-04-24T07:10:53;13.80;;;5.60;;
57309;SDS011;43153;50.984;18.204;2023-04-24T07:13:22;11.50;;;5.80;;
57309;SDS011;43153;50.984;18.204;2023-04-24T07:15:53;15.20;;;6.00;;
57309;SDS011;43153;50.984;18.204;2023-04-24T07:18:21;12.40;;;5.60;;
57309;SDS011;43153;50.984;18.204;2023-04-24T07:20:47;12.80;;;5.50;;
57309;SDS011;43153;50.984;18.204;2023-04-24T07:23:19;10.80;;;5.70;;
57309;SDS011;43153;50.984;18.204;2023-04-24T07:25:48;12.60;;;5.30;;
57309;SDS011;43153;50.984;18.204;2023-04-24T07:28:19;13.50;;;5.50;;
57309;SDS011;43153;50.984;18.204;2023-04-24T07:30:45;14.20;;;5.90;;
57309;SDS011;43153;50.984;18.204;2023-04-24T07:33:16;12.50;;;6.20;;
57309;SDS011;43153;50.984;18.204;2023-04-24T07:35:43;12.60;;;5.30;;
57309;SDS011;43153;50.984;18.204;2023-04-24T07:38:14;14.50;;;5.90;;
57309;SDS011;43153;50.984;18.204;2023-04-24T07:40:40;13.60;;;7.20;;
57309;SDS011;43153;50.984;18.204;2023-04-24T07:43:06;16.10;;;6.40;;
57309;SDS011;43153;50.984;18.204;2023-04-24T07:45:32;19.20;;;8.10;;
57309;SDS011;43153;50.984;18.204;2023-04-24T07:48:03;12.80;;;5.90;;
57309;SDS011;43153;50.984;18.204;2023-04-24T07:50:31;13.40;;;5.30;;
57309;SDS011;43153;50.984;18.204;2023-04-24T07:52:57;12.80;;;4.40;;
57309;SDS011;43153;50.984;18.204;2023-04-24T07:55:24;10.30;;;4.40;;
57309;SDS011;43153;50.984;18.204;2023-04-24T07:57:50;7.20;;;3.20;;
57309;SDS011;43153;50.984;18.204;2023-04-24T08:00:19;10.80;;;3.60;;
57309;SDS011;43153;50.984;18.204;2023-04-24T08:02:48;9.60;;;3.90;;
57309;SDS011;43153;50.984;18.204;2023-04-24T08:05:17;10.30;;;4.50;;
57309;SDS011;43153;50.984;18.204;2023-04-24T08:07:43;10.10;;;4.10;;
57309;SDS011;43153;50.984;18.204;2023-04-24T08:10:13;11.60;;;4.80;;
57309;SDS011;43153;50.984;18.204;2023-04-24T08:12:38;14.40;;;5.30;;
57309;SDS011;43153;50.984;18.204;2023-04-24T08:17:36;10.90;;;3.60;;
57309;SDS011;43153;50.984;18.204;2023-04-24T08:20:05;7.90;;;3.00;;
57309;SDS011;43153;50.984;18.204;2023-04-24T08:22:35;9.90;;;3.40;;
57309;SDS011;43153;50.984;18.204;2023-04-24T08:25:11;13.00;;;4.00;;
57309;SDS011;43153;50.984;18.204;2023-04-24T08:27:38;9.60;;;3.40;;
57309;SDS011;43153;50.984;18.204;2023-04-24T08:30:06;7.50;;;3.60;;
57309;SDS011;43153;50.984;18.204;2023-04-24T08:32:32;8.30;;;3.70;;
57309;SDS011;43153;50.984;18.204;2023-04-24T08:34:58;8.30;;;3.30;;
57309;SDS011;43153;50.984;18.204;2023-04-24T08:37:26;7.90;;;3.30;;
57309;SDS011;43153;50.984;18.204;2023-04-24T08:39:58;9.30;;;3.50;;
57309;SDS011;43153;50.984;18.204;2023-04-24T08:42:24;10.40;;;3.50;;
57309;SDS011;43153;50.984;18.204;2023-04-24T08:44:58;10.10;;;3.40;;
57309;SDS011;43153;50.984;18.204;2023-04-24T08:47:29;9.10;;;3.20;;
57309;SDS011;43153;50.984;18.204;2023-04-24T08:49:56;7.40;;;3.10;;
57309;SDS011;43153;50.984;18.204;2023-04-24T09:31:48;6.70;;;2.60;;
57309;SDS011;43153;50.984;18.204;2023-04-24T09:34:14;9.90;;;3.60;;
57309;SDS011;43153;50.984;18.204;2023-04-24T09:36:45;5.80;;;2.90;;
57309;SDS011;43153;50.984;18.204;2023-04-24T09:39:13;7.20;;;2.80;;
57309;SDS011;43153;50.984;18.204;2023-04-24T09:41:45;8.20;;;2.90;;
57309;SDS011;43153;50.984;18.204;2023-04-24T09:44:12;6.30;;;2.80;;
57309;SDS011;43153;50.984;18.204;2023-04-24T09:46:51;11.70;;;3.40;;
57309;SDS011;43153;50.984;18.204;2023-04-24T09:49:28;7.30;;;3.30;;
57309;SDS011;43153;50.984;18.204;2023-04-24T09:52:10;7.90;;;2.70;;
57309;SDS011;43153;50.984;18.204;2023-04-24T09:54:58;9.60;;;2.80;;
57309;SDS011;43153;50.984;18.204;2023-04-24T09:57:25;6.90;;;3.00;;
57309;SDS011;43153;50.984;18.204;2023-04-24T09:59:52;8.10;;;3.30;;
57309;SDS011;43153;50.984;18.204;2023-04-24T10:02:20;9.30;;;3.20;;
57309;SDS011;43153;50.984;18.204;2023-04-24T10:04:55;8.70;;;3.00;;
57309;SDS011;43153;50.984;18.204;2023-04-24T10:07:27;8.80;;;3.00;;
57309;SDS011;43153;50.984;18.204;2023-04-24T10:09:57;7.20;;;2.90;;
57309;SDS011;43153;50.984;18.204;2023-04-24T10:12:31;5.10;;;2.70;;
57309;SDS011;43153;50.984;18.204;2023-04-24T10:15:00;6.20;;;3.10;;
57309;SDS011;43153;50.984;18.204;2023-04-24T10:17:29;6.40;;;3.00;;
57309;SDS011;43153;50.984;18.204;2023-04-24T10:19:57;10.20;;;3.00;;
57309;SDS011;43153;50.984;18.204;2023-04-24T10:22:27;7.50;;;3.30;;
57309;SDS011;43153;50.984;18.204;2023-04-24T10:25:02;14.30;;;3.70;;
57309;SDS011;43153;50.984;18.204;2023-04-24T10:27:33;9.40;;;3.50;;
57309;SDS011;43153;50.984;18.204;2023-04-24T10:30:02;6.00;;;2.60;;
57309;SDS011;43153;50.984;18.204;2023-04-24T10:32:31;9.10;;;3.10;;
57309;SDS011;43153;50.984;18.204;2023-04-24T10:35:13;6.40;;;2.50;;
57309;SDS011;43153;50.984;18.204;2023-04-24T10:37:46;6.50;;;2.80;;
57309;SDS011;43153;50.984;18.204;2023-04-24T10:40:17;6.70;;;2.90;;
57309;SDS011;43153;50.984;18.204;2023-04-24T10:42:52;11.50;;;3.60;;
57309;SDS011;43153;50.984;18.204;2023-04-24T10:45:26;8.70;;;3.20;;
57309;SDS011;43153;50.984;18.204;2023-04-24T10:47:53;6.60;;;3.10;;
57309;SDS011;43153;50.984;18.204;2023-04-24T10:50:29;7.00;;;3.10;;
57309;SDS011;43153;50.984;18.204;2023-04-24T10:53:17;6.20;;;2.90;;
57309;SDS011;43153;50.984;18.204;2023-04-24T10:55:46;6.40;;;3.00;;
57309;SDS011;43153;50.984;18.204;2023-04-24T10:58:17;6.00;;;2.80;;
57309;SDS011;43153;50.984;18.204;2023-04-24T11:01:01;7.20;;;3.30;;
57309;SDS011;43153;50.984;18.204;2023-04-24T11:03:32;6.50;;;2.80;;
57309;SDS011;43153;50.984;18.204;2023-04-24T11:06:01;9.10;;;3.40;;
57309;SDS011;43153;50.984;18.204;2023-04-24T11:11:15;7.80;;;3.10;;
57309;SDS011;43153;50.984;18.204;2023-04-24T11:16:30;6.20;;;3.10;;
57309;SDS011;43153;50.984;18.204;2023-04-24T11:21:45;7.20;;;3.30;;
57309;SDS011;43153;50.984;18.204;2023-04-24T11:24:26;6.70;;;3.10;;
57309;SDS011;43153;50.984;18.204;2023-04-24T11:26:56;9.40;;;3.20;;
57309;SDS011;43153;50.984;18.204;2023-04-24T11:29:43;10.20;;;4.20;;
57309;SDS011;43153;50.984;18.204;2023-04-24T11:32:30;7.20;;;3.60;;
57309;SDS011;43153;50.984;18.204;2023-04-24T11:37:36;6.20;;;3.10;;
57309;SDS011;43153;50.984;18.204;2023-04-24T11:40:07;10.30;;;4.10;;
57309;SDS011;43153;50.984;18.204;2023-04-24T11:42:40;10.00;;;4.00;;
57309;SDS011;43153;50.984;18.204;2023-04-24T11:45:15;7.30;;;2.90;;
57309;SDS011;43153;50.984;18.204;2023-04-24T11:47:43;8.80;;;3.20;;
57309;SDS011;43153;50.984;18.204;2023-04-24T11:50:11;7.10;;;3.10;;
57309;SDS011;43153;50.984;18.204;2023-04-24T11:52:41;5.90;;;3.30;;
57309;SDS011;43153;50.984;18.204;2023-04-24T11:57:39;6.10;;;2.90;;
57309;SDS011;43153;50.984;18.204;2023-04-24T12:00:15;9.00;;;3.40;;
57309;SDS011;43153;50.984;18.204;2023-04-24T12:03:11;6.00;;;3.30;;
57309;SDS011;43153;50.984;18.204;2023-04-24T12:05:39;11.00;;;3.50;;
57309;SDS011;43153;50.984;18.204;2023-04-24T12:08:08;14.20;;;4.40;;
57309;SDS011;43153;50.984;18.204;2023-04-24T12:10:38;8.50;;;3.60;;
57309;SDS011;43153;50.984;18.204;2023-04-24T12:13:05;12.10;;;3.80;;
57309;SDS011;43153;50.984;18.204;2023-04-24T12:15:39;9.50;;;3.70;;
57309;SDS011;43153;50.984;18.204;2023-04-24T12:18:14;8.20;;;3.50;;
57309;SDS011;43153;50.984;18.204;2023-04-24T12:20:42;9.70;;;3.10;;
57309;SDS011;43153;50.984;18.204;2023-04-24T12:23:15;7.60;;;3.30;;
57309;SDS011;43153;50.984;18.204;2023-04-24T12:25:44;8.10;;;3.40;;
57309;SDS011;43153;50.984;18.204;2023-04-24T12:28:18;6.50;;;3.10;;
57309;SDS011;43153;50.984;18.204;2023-04-24T12:30:47;14.80;;;3.80;;
57309;SDS011;43153;50.984;18.204;2023-04-24T12:33:17;8.20;;;3.80;;
57309;SDS011;43153;50.984;18.204;2023-04-24T12:35:51;6.40;;;2.80;;
57309;SDS011;43153;50.984;18.204;2023-04-24T12:38:25;6.30;;;2.90;;
57309;SDS011;43153;50.984;18.204;2023-04-24T12:43:37;7.70;;;3.50;;
57309;SDS011;43153;50.984;18.204;2023-04-24T12:46:03;6.10;;;3.00;;
57309;SDS011;43153;50.984;18.204;2023-04-24T12:48:36;7.00;;;3.10;;
57309;SDS011;43153;50.984;18.204;2023-04-24T12:51:05;6.90;;;3.10;;
57309;SDS011;43153;50.984;18.204;2023-04-24T12:53:33;5.50;;;2.40;;
57309;SDS011;43153;50.984;18.204;2023-04-24T12:56:09;7.00;;;2.60;;
57309;SDS011;43153;50.984;18.204;2023-04-24T12:58:43;7.70;;;2.80;;
57309;SDS011;43153;50.984;18.204;2023-04-24T13:01:11;7.30;;;3.70;;
57309;SDS011;43153;50.984;18.204;2023-04-24T13:03:42;9.50;;;3.70;;
57309;SDS011;43153;50.984;18.204;2023-04-24T13:06:21;8.30;;;2.70;;
57309;SDS011;43153;50.984;18.204;2023-04-24T13:08:51;10.60;;;3.60;;
57309;SDS011;43153;50.984;18.204;2023-04-24T13:11:20;8.10;;;3.50;;
57309;SDS011;43153;50.984;18.204;2023-04-24T13:13:57;5.80;;;2.70;;
57309;SDS011;43153;50.984;18.204;2023-04-24T13:16:25;7.60;;;3.20;;
57309;SDS011;43153;50.984;18.204;2023-04-24T13:18:57;7.40;;;3.60;;
57309;SDS011;43153;50.984;18.204;2023-04-24T13:21:28;7.10;;;3.40;;
57309;SDS011;43153;50.984;18.204;2023-04-24T13:23:59;11.50;;;3.60;;
57309;SDS011;43153;50.984;18.204;2023-04-24T13:26:37;8.10;;;3.70;;
57309;SDS011;43153;50.984;18.204;2023-04-24T13:29:06;8.20;;;3.50;;
57309;SDS011;43153;50.984;18.204;2023-04-24T13:31:32;8.10;;;3.50;;
57309;SDS011;43153;50.984;18.204;2023-04-24T13:33:58;9.70;;;4.30;;
57309;SDS011;43153;50.984;18.204;2023-04-24T13:36:24;9.10;;;4.30;;
57309;SDS011;43153;50.984;18.204;2023-04-24T13:38:51;8.80;;;4.40;;
57309;SDS011;43153;50.984;18.204;2023-04-24T13:41:19;10.10;;;4.40;;
57309;SDS011;43153;50.984;18.204;2023-04-24T13:43:49;8.50;;;3.90;;
57309;SDS011;43153;50.984;18.204;2023-04-24T13:46:17;8.30;;;4.30;;
57309;SDS011;43153;50.984;18.204;2023-04-24T13:48:43;8.60;;;4.00;;
57309;SDS011;43153;50.984;18.204;2023-04-24T13:51:09;8.30;;;4.00;;
57309;SDS011;43153;50.984;18.204;2023-04-24T13:53:47;9.70;;;4.10;;
57309;SDS011;43153;50.984;18.204;2023-04-24T13:56:13;9.00;;;4.70;;
57309;SDS011;43153;50.984;18.204;2023-04-24T13:58:40;11.10;;;5.00;;
57309;SDS011;43153;50.984;18.204;2023-04-24T14:01:08;10.80;;;5.20;;
57309;SDS011;43153;50.984;18.204;2023-04-24T14:03:38;9.50;;;4.80;;
57309;SDS011;43153;50.984;18.204;2023-04-24T14:06:06;14.40;;;7.70;;
57309;SDS011;43153;50.984;18.204;2023-04-24T14:08:33;15.70;;;8.20;;
57309;SDS011;43153;50.984;18.204;2023-04-24T14:11:00;13.80;;;6.90;;
57309;SDS011;43153;50.984;18.204;2023-04-24T14:13:26;12.00;;;6.10;;
57309;SDS011;43153;50.984;18.204;2023-04-24T14:15:55;13.20;;;6.10;;
57309;SDS011;43153;50.984;18.204;2023-04-24T14:18:22;12.60;;;5.40;;
57309;SDS011;43153;50.984;18.204;2023-04-24T14:20:53;10.70;;;4.70;;
57309;SDS011;43153;50.984;18.204;2023-04-24T14:23:21;7.80;;;4.80;;
57309;SDS011;43153;50.984;18.204;2023-04-24T14:25:51;10.90;;;4.70;;
57309;SDS011;43153;50.984;18.204;2023-04-24T14:28:24;8.30;;;4.40;;
57309;SDS011;43153;50.984;18.204;2023-04-24T14:30:53;8.30;;;4.60;;
57309;SDS011;43153;50.984;18.204;2023-04-24T14:33:30;9.10;;;4.80;;
57309;SDS011;43153;50.984;18.204;2023-04-24T14:35:58;9.50;;;4.30;;
57309;SDS011;43153;50.984;18.204;2023-04-24T14:38:25;8.70;;;4.30;;
57309;SDS011;43153;50.984;18.204;2023-04-24T14:40:56;11.40;;;4.90;;
57309;SDS011;43153;50.984;18.204;2023-04-24T14:43:26;9.70;;;5.70;;
57309;SDS011;43153;50.984;18.204;2023-04-24T14:45:53;10.80;;;5.00;;
57309;SDS011;43153;50.984;18.204;2023-04-24T14:48:32;9.90;;;4.60;;
57309;SDS011;43153;50.984;18.204;2023-04-24T14:51:01;13.40;;;6.20;;
57309;SDS011;43153;50.984;18.204;2023-04-24T14:53:29;11.80;;;5.50;;
57309;SDS011;43153;50.984;18.204;2023-04-24T14:56:01;13.00;;;6.30;;
57309;SDS011;43153;50.984;18.204;2023-04-24T14:58:34;11.90;;;5.90;;
57309;SDS011;43153;50.984;18.204;2023-04-24T15:01:05;7.70;;;4.60;;
57309;SDS011;43153;50.984;18.204;2023-04-24T15:03:38;9.30;;;4.90;;
57309;SDS011;43153;50.984;18.204;2023-04-24T15:06:06;15.50;;;7.10;;
57309;SDS011;43153;50.984;18.204;2023-04-24T15:08:33;17.10;;;6.30;;
57309;SDS011;43153;50.984;18.204;2023-04-24T15:11:04;14.80;;;5.70;;
57309;SDS011;43153;50.984;18.204;2023-04-24T15:13:36;15.30;;;7.30;;
57309;SDS011;43153;50.984;18.204;2023-04-24T15:16:04;14.20;;;7.20;;
57309;SDS011;43153;50.984;18.204;2023-04-24T15:18:36;11.50;;;6.30;;
57309;SDS011;43153;50.984;18.204;2023-04-24T15:21:09;9.40;;;5.30;;
57309;SDS011;43153;50.984;18.204;2023-04-24T16:01:52;13.30;;;7.50;;
57309;SDS011;43153;50.984;18.204;2023-04-24T16:04:25;13.30;;;6.70;;
57309;SDS011;43153;50.984;18.204;2023-04-24T16:06:55;14.30;;;7.90;;
57309;SDS011;43153;50.984;18.204;2023-04-24T16:09:27;14.40;;;8.40;;
57309;SDS011;43153;50.984;18.204;2023-04-24T16:11:54;15.80;;;8.80;;
57309;SDS011;43153;50.984;18.204;2023-04-24T16:14:20;14.70;;;7.90;;
57309;SDS011;43153;50.984;18.204;2023-04-24T16:16:49;15.40;;;7.70;;
57309;SDS011;43153;50.984;18.204;2023-04-24T16:19:15;19.10;;;9.00;;
57309;SDS011;43153;50.984;18.204;2023-04-24T16:21:50;16.80;;;8.60;;
57309;SDS011;43153;50.984;18.204;2023-04-24T16:24:18;17.70;;;7.90;;
57309;SDS011;43153;50.984;18.204;2023-04-24T16:26:46;15.30;;;8.50;;
57309;SDS011;43153;50.984;18.204;2023-04-24T16:29:12;14.00;;;7.90;;
57309;SDS011;43153;50.984;18.204;2023-04-24T16:31:45;17.80;;;9.30;;
57309;SDS011;43153;50.984;18.204;2023-04-24T16:34:12;17.20;;;9.90;;
57309;SDS011;43153;50.984;18.204;2023-04-24T16:36:39;16.90;;;8.80;;
57309;SDS011;43153;50.984;18.204;2023-04-24T16:39:09;15.60;;;9.30;;
57309;SDS011;43153;50.984;18.204;2023-04-24T16:41:38;16.80;;;8.60;;
57309;SDS011;43153;50.984;18.204;2023-04-24T16:44:07;17.10;;;8.10;;
57309;SDS011;43153;50.984;18.204;2023-04-24T16:46:34;17.60;;;9.00;;
57309;SDS011;43153;50.984;18.204;2023-04-24T16:49:00;17.50;;;9.20;;
57309;SDS011;43153;50.984;18.204;2023-04-24T16:51:26;17.10;;;9.30;;
57309;SDS011;43153;50.984;18.204;2023-04-24T16:53:54;19.80;;;10.00;;
57309;SDS011;43153;50.984;18.204;2023-04-24T16:56:22;17.10;;;9.60;;
57309;SDS011;43153;50.984;18.204;2023-04-24T16:58:50;16.00;;;9.00;;